createdAt,value
2022-09-06T00:00:49.724Z,47.54
2022-09-06T00:01:52.014Z,47.45
2022-09-06T00:02:54.649Z,47.07
2022-09-06T00:03:57.482Z,47.56
2022-09-06T00:04:59.190Z,47.34
2022-09-06T00:06:07.298Z,47.17
2022-09-06T00:07:08.957Z,46.97
2022-09-06T00:08:11.521Z,47.80
2022-09-06T00:09:13.144Z,47.71
2022-09-06T00:10:16.172Z,47.93
2022-09-06T00:11:18.601Z,48.24
2022-09-06T00:12:22.817Z,48.38
2022-09-06T00:13:24.496Z,48.29
2022-09-06T00:14:27.089Z,48.44
2022-09-06T00:15:28.908Z,48.41
2022-09-06T00:16:31.619Z,48.04
2022-09-06T00:17:33.785Z,48.21
2022-09-06T00:18:36.383Z,47.92
2022-09-06T00:19:38.151Z,47.54
2022-09-06T00:20:41.971Z,47.74
2022-09-06T00:21:43.556Z,47.61
2022-09-06T00:22:46.116Z,47.82
2022-09-06T00:23:47.981Z,47.30
2022-09-06T00:24:50.520Z,47.67
2022-09-06T00:25:52.215Z,47.50
2022-09-06T00:26:54.791Z,47.81
2022-09-06T00:28:00.455Z,47.22
2022-09-06T00:29:03.050Z,47.49
2022-09-06T00:30:05.678Z,47.94
2022-09-06T00:31:12.850Z,47.84
2022-09-06T00:32:14.533Z,47.67
2022-09-06T00:33:17.213Z,47.62
2022-09-06T00:34:18.858Z,47.72
2022-09-06T00:35:24.613Z,47.86
2022-09-06T00:36:26.423Z,48.02
2022-09-06T00:37:28.990Z,48.25
2022-09-06T00:38:30.930Z,48.33
2022-09-06T00:39:33.572Z,48.13
2022-09-06T00:40:35.714Z,48.77
2022-09-06T00:41:38.618Z,48.39
2022-09-06T00:42:40.492Z,48.98
2022-09-06T00:43:44.830Z,49.11
2022-09-06T00:44:48.129Z,49.20
2022-09-06T00:45:50.979Z,49.11
2022-09-06T00:46:54.657Z,49.47
2022-09-06T00:47:58.712Z,49.64
2022-09-06T00:49:05.097Z,49.35
2022-09-06T00:50:10.091Z,49.87
2022-09-06T00:51:14.185Z,49.87
2022-09-06T00:52:19.505Z,50.11
2022-09-06T00:53:21.803Z,50.02
2022-09-06T00:54:24.673Z,50.04
2022-09-06T00:55:26.585Z,50.14
2022-09-06T00:56:31.428Z,50.47
2022-09-06T00:57:33.169Z,50.19
2022-09-06T00:58:36.578Z,50.28
2022-09-06T00:59:40.340Z,50.58
2022-09-06T01:00:44.796Z,50.63
2022-09-06T01:01:46.424Z,51.13
2022-09-06T01:02:49.813Z,50.99
2022-09-06T01:03:51.962Z,51.77
2022-09-06T01:04:55.791Z,51.89
2022-09-06T01:06:06.441Z,52.40
2022-09-06T01:07:19.440Z,52.58
2022-09-06T01:08:32.744Z,52.83
2022-09-06T01:09:48.351Z,53.40
2022-09-06T01:11:01.355Z,54.13
2022-09-06T01:12:21.904Z,54.38
2022-09-06T01:13:35.386Z,55.32
2022-09-06T01:15:00.440Z,55.81
2022-09-06T01:16:11.660Z,56.17
2022-09-06T01:17:23.601Z,57.16
2022-09-06T01:18:40.577Z,57.47
2022-09-06T01:20:20.946Z,58.08
2022-09-06T01:21:37.276Z,58.34
2022-09-06T01:23:05.906Z,59.00
2022-09-06T01:24:42.400Z,59.28
2022-09-06T01:25:59.898Z,60.01
2022-09-06T01:27:38.518Z,60.46
2022-09-06T01:28:42.705Z,60.84
2022-09-06T01:29:48.917Z,61.45
2022-09-06T01:30:54.699Z,62.17
2022-09-06T01:32:05.764Z,62.43
2022-09-06T01:33:14.187Z,62.89
2022-09-06T01:34:23.135Z,63.44
2022-09-06T01:35:33.828Z,64.08
2022-09-06T01:37:06.193Z,64.37
2022-09-06T01:38:08.242Z,64.33
2022-09-06T01:39:17.787Z,64.81
2022-09-06T01:40:20.869Z,65.32
2022-09-06T01:41:22.473Z,65.63
2022-09-06T01:42:28.343Z,65.40
2022-09-06T01:43:35.002Z,65.66
2022-09-06T01:44:40.383Z,65.88
2022-09-06T01:45:52.089Z,65.86
2022-09-06T01:47:01.816Z,65.79
2022-09-06T01:48:11.288Z,65.90
2022-09-06T01:49:29.921Z,66.11
2022-09-06T01:50:46.113Z,66.59
2022-09-06T01:52:03.671Z,66.55
2022-09-06T01:53:17.502Z,66.65
2022-09-06T01:54:35.107Z,66.64
2022-09-06T01:55:49.794Z,66.45
2022-09-06T01:57:04.318Z,66.41
2022-09-06T01:58:18.494Z,66.76
2022-09-06T01:59:39.799Z,67.00
2022-09-06T02:00:52.790Z,67.06
2022-09-06T02:02:03.616Z,67.48
2022-09-06T02:03:13.059Z,67.81
2022-09-06T02:04:21.775Z,67.64
2022-09-06T02:05:31.753Z,67.62
2022-09-06T02:06:38.280Z,67.35
2022-09-06T02:07:43.765Z,67.21
2022-09-06T02:08:50.647Z,67.00
2022-09-06T02:09:57.568Z,67.09
2022-09-06T02:11:02.764Z,67.32
2022-09-06T02:12:06.870Z,67.34
2022-09-06T02:13:10.774Z,67.14
2022-09-06T02:14:19.000Z,67.51
2022-09-06T02:15:26.556Z,67.44
2022-09-06T02:16:31.108Z,67.38
2022-09-06T02:17:35.625Z,67.42
2022-09-06T02:18:43.743Z,67.66
2022-09-06T02:19:50.215Z,67.41
2022-09-06T02:20:56.859Z,67.64
2022-09-06T02:21:59.347Z,68.13
2022-09-06T02:23:05.137Z,68.10
2022-09-06T02:24:11.980Z,68.56
2022-09-06T02:25:19.745Z,68.86
2022-09-06T02:26:25.438Z,68.96
2022-09-06T02:27:31.028Z,68.95
2022-09-06T02:28:33.191Z,69.07
2022-09-06T02:29:36.545Z,68.98
2022-09-06T02:30:43.068Z,69.36
2022-09-06T02:31:49.084Z,69.28
2022-09-06T02:32:58.000Z,69.36
2022-09-06T02:34:01.248Z,69.39
2022-09-06T02:35:09.241Z,69.45
2022-09-06T02:36:11.837Z,69.22
2022-09-06T02:37:15.139Z,69.45
2022-09-06T02:38:18.658Z,69.50
2022-09-06T02:39:20.247Z,69.56
2022-09-06T02:40:23.534Z,69.85
2022-09-06T02:41:25.757Z,70.12
2022-09-06T02:42:28.285Z,70.35
2022-09-06T02:43:30.010Z,70.43
2022-09-06T02:44:32.652Z,70.46
2022-09-06T02:45:34.411Z,70.44
2022-09-06T02:46:38.459Z,70.43
2022-09-06T02:47:40.125Z,70.28
2022-09-06T02:48:42.691Z,70.34
2022-09-06T02:49:44.442Z,70.25
2022-09-06T02:50:47.095Z,70.29
2022-09-06T02:51:48.734Z,70.28
2022-09-06T02:53:02.315Z,70.38
2022-09-06T02:54:04.521Z,70.21
2022-09-06T02:55:08.538Z,70.30
2022-09-06T02:56:10.561Z,70.08
2022-09-06T02:57:14.107Z,70.08
2022-09-06T02:58:16.298Z,70.22
2022-09-06T02:59:18.904Z,69.99
2022-09-06T03:00:20.563Z,70.39
2022-09-06T03:01:23.270Z,70.45
2022-09-06T03:02:26.332Z,70.60
2022-09-06T03:03:29.431Z,70.56
2022-09-06T03:04:31.563Z,70.20
2022-09-06T03:05:34.733Z,70.62
2022-09-06T03:06:36.360Z,70.33
2022-09-06T03:07:39.055Z,70.36
2022-09-06T03:08:40.648Z,70.03
2022-09-06T03:09:43.323Z,70.16
2022-09-06T03:10:49.264Z,70.01
2022-09-06T03:11:52.079Z,70.12
2022-09-06T03:12:53.761Z,70.00
2022-09-06T03:13:56.477Z,69.86
2022-09-06T03:14:58.124Z,69.65
2022-09-06T03:16:01.409Z,69.91
2022-09-06T03:17:03.677Z,69.48
2022-09-06T03:18:07.751Z,69.69
2022-09-06T03:19:09.331Z,70.03
2022-09-06T03:20:13.068Z,70.18
2022-09-06T03:21:15.595Z,69.82
2022-09-06T03:22:18.348Z,70.14
2022-09-06T03:23:21.205Z,70.11
2022-09-06T03:24:23.736Z,69.82
2022-09-06T03:25:26.130Z,69.85
2022-09-06T03:26:30.474Z,70.09
2022-09-06T03:27:32.446Z,69.83
2022-09-06T03:28:35.421Z,70.01
2022-09-06T03:29:37.107Z,69.77
2022-09-06T03:30:40.114Z,69.71
2022-09-06T03:31:41.780Z,69.58
2022-09-06T03:32:45.059Z,69.75
2022-09-06T03:33:48.090Z,69.84
2022-09-06T03:34:50.878Z,69.92
2022-09-06T03:35:54.519Z,69.98
2022-09-06T03:36:57.387Z,70.01
2022-09-06T03:38:00.232Z,70.30
2022-09-06T03:39:02.777Z,70.15
2022-09-06T03:40:05.221Z,70.36
2022-09-06T03:41:07.901Z,70.22
2022-09-06T03:42:09.777Z,69.97
2022-09-06T03:43:12.359Z,69.99
2022-09-06T03:44:14.058Z,70.21
2022-09-06T03:45:16.739Z,70.24
2022-09-06T03:46:18.338Z,70.44
2022-09-06T03:47:21.111Z,70.44
2022-09-06T03:48:24.497Z,70.34
2022-09-06T03:49:28.514Z,70.19
2022-09-06T03:50:30.083Z,70.17
2022-09-06T03:51:32.662Z,70.01
2022-09-06T03:52:34.266Z,69.82
2022-09-06T03:53:36.841Z,69.74
2022-09-06T03:54:38.417Z,69.67
2022-09-06T03:55:41.195Z,70.00
2022-09-06T03:56:42.870Z,70.23
2022-09-06T03:57:45.463Z,70.17
2022-09-06T03:58:47.336Z,70.15
2022-09-06T03:59:50.001Z,70.18
2022-09-06T04:01:00.527Z,70.20
2022-09-06T04:02:04.225Z,70.28
2022-09-06T04:03:05.887Z,70.33
2022-09-06T04:04:08.470Z,70.34
2022-09-06T04:05:13.284Z,70.24
2022-09-06T04:06:15.829Z,70.20
2022-09-06T04:07:17.523Z,70.46
2022-09-06T04:08:20.103Z,70.17
2022-09-06T04:09:21.744Z,70.44
2022-09-06T04:10:24.337Z,70.27
2022-09-06T04:11:26.083Z,70.36
2022-09-06T04:12:28.851Z,70.38
2022-09-06T04:13:31.520Z,70.55
2022-09-06T04:14:34.066Z,70.64
2022-09-06T04:15:36.986Z,70.53
2022-09-06T04:16:39.713Z,70.73
2022-09-06T04:17:44.478Z,70.74
2022-09-06T04:18:47.091Z,70.62
2022-09-06T04:19:48.799Z,70.62
2022-09-06T04:20:55.848Z,70.61
2022-09-06T04:21:57.584Z,70.56
2022-09-06T04:23:00.188Z,70.41
2022-09-06T04:24:03.614Z,70.54
2022-09-06T04:25:06.238Z,70.91
2022-09-06T04:26:09.034Z,70.98
2022-09-06T04:27:10.824Z,70.87
2022-09-06T04:28:13.411Z,71.15
2022-09-06T04:29:16.005Z,71.04
2022-09-06T04:30:17.823Z,71.14
2022-09-06T04:31:20.911Z,71.11
2022-09-06T04:32:22.720Z,71.30
2022-09-06T04:33:26.673Z,71.26
2022-09-06T04:34:28.264Z,71.43
2022-09-06T04:35:30.860Z,71.58
2022-09-06T04:36:34.824Z,71.96
2022-09-06T04:37:36.440Z,71.79
2022-09-06T04:38:40.756Z,72.25
2022-09-06T04:39:42.391Z,72.02
2022-09-06T04:40:45.178Z,72.35
2022-09-06T04:41:46.861Z,71.92
2022-09-06T04:42:49.790Z,72.20
2022-09-06T04:43:52.349Z,72.11
2022-09-06T04:44:53.927Z,72.15
2022-09-06T04:45:56.607Z,72.15
2022-09-06T04:47:09.479Z,72.18
2022-09-06T04:48:12.890Z,72.34
2022-09-06T04:49:14.528Z,72.53
2022-09-06T04:50:17.147Z,72.23
2022-09-06T04:51:19.362Z,72.77
2022-09-06T04:52:26.010Z,72.82
2022-09-06T04:53:31.228Z,72.46
2022-09-06T04:54:33.768Z,72.39
2022-09-06T04:55:35.462Z,72.91
2022-09-06T04:56:38.043Z,72.77
2022-09-06T04:57:44.454Z,72.87
2022-09-06T04:58:50.310Z,72.99
2022-09-06T04:59:51.899Z,73.01
2022-09-06T05:00:54.849Z,72.97
2022-09-06T05:01:56.617Z,72.82
2022-09-06T05:02:59.989Z,73.11
2022-09-06T05:04:01.924Z,73.10
2022-09-06T05:05:04.953Z,72.82
2022-09-06T05:06:08.379Z,73.12
2022-09-06T05:07:11.106Z,73.08
2022-09-06T05:08:14.671Z,72.94
2022-09-06T05:09:17.310Z,72.97
2022-09-06T05:10:19.233Z,73.15
2022-09-06T05:11:21.981Z,72.92
2022-09-06T05:12:23.575Z,72.88
2022-09-06T05:13:26.539Z,73.15
2022-09-06T05:14:28.629Z,73.14
2022-09-06T05:15:31.594Z,72.73
2022-09-06T05:16:34.218Z,73.07
2022-09-06T05:17:36.133Z,72.71
2022-09-06T05:18:38.813Z,73.11
2022-09-06T05:19:40.569Z,73.13
2022-09-06T05:20:43.197Z,73.22
2022-09-06T05:21:44.882Z,72.78
2022-09-06T05:22:54.140Z,73.14
2022-09-06T05:23:58.782Z,72.98
2022-09-06T05:25:01.585Z,72.86
2022-09-06T05:26:03.621Z,72.88
2022-09-06T05:27:07.439Z,72.90
2022-09-06T05:28:09.107Z,73.21
2022-09-06T05:29:11.656Z,73.08
2022-09-06T05:30:14.454Z,73.00
2022-09-06T05:31:26.709Z,73.14
2022-09-06T05:32:28.339Z,73.22
2022-09-06T05:33:30.890Z,73.04
2022-09-06T05:34:32.826Z,73.21
2022-09-06T05:35:35.432Z,72.88
2022-09-06T05:36:38.638Z,73.28
2022-09-06T05:37:41.397Z,73.26
2022-09-06T05:38:43.019Z,72.95
2022-09-06T05:39:47.080Z,73.07
2022-09-06T05:40:48.688Z,72.92
2022-09-06T05:41:51.274Z,72.84
2022-09-06T05:42:52.979Z,72.87
2022-09-06T05:43:55.856Z,72.50
2022-09-06T05:44:57.468Z,72.54
2022-09-06T05:46:00.418Z,72.19
2022-09-06T05:47:02.360Z,72.05
2022-09-06T05:48:05.333Z,72.08
2022-09-06T05:49:08.084Z,71.81
2022-09-06T05:50:11.057Z,71.95
2022-09-06T05:51:13.567Z,71.76
2022-09-06T05:52:18.309Z,71.32
2022-09-06T05:53:20.081Z,71.46
2022-09-06T05:54:22.783Z,71.10
2022-09-06T05:55:26.185Z,70.98
2022-09-06T05:56:28.864Z,71.12
2022-09-06T05:57:30.514Z,70.94
2022-09-06T05:58:33.502Z,70.98
2022-09-06T05:59:35.318Z,70.25
2022-09-06T06:00:38.067Z,70.36
2022-09-06T06:01:47.857Z,70.17
2022-09-06T06:02:50.980Z,70.25
2022-09-06T06:03:54.658Z,69.86
2022-09-06T06:04:58.223Z,69.52
2022-09-06T06:05:59.943Z,69.44
2022-09-06T06:07:02.639Z,69.14
2022-09-06T06:08:04.352Z,69.37
2022-09-06T06:09:07.111Z,69.10
2022-09-06T06:10:09.785Z,69.18
2022-09-06T06:11:14.228Z,68.71
2022-09-06T06:12:16.920Z,68.82
2022-09-06T06:13:18.578Z,68.60
2022-09-06T06:14:21.154Z,68.48
2022-09-06T06:15:22.806Z,68.46
2022-09-06T06:16:25.718Z,67.98
2022-09-06T06:17:27.655Z,68.00
2022-09-06T06:18:30.571Z,68.05
2022-09-06T06:19:32.175Z,67.85
2022-09-06T06:20:34.824Z,67.60
2022-09-06T06:21:38.393Z,67.45
2022-09-06T06:22:40.989Z,67.46
2022-09-06T06:23:44.510Z,67.49
2022-09-06T06:24:47.395Z,67.21
2022-09-06T06:25:49.047Z,67.27
2022-09-06T06:26:52.974Z,66.99
2022-09-06T06:27:54.757Z,67.10
2022-09-06T06:28:58.861Z,66.88
2022-09-06T06:30:01.465Z,66.75
2022-09-06T06:31:03.272Z,66.78
2022-09-06T06:32:06.210Z,66.53
2022-09-06T06:33:08.004Z,66.70
2022-09-06T06:34:10.573Z,66.86
2022-09-06T06:35:12.545Z,66.31
2022-09-06T06:36:22.596Z,66.26
2022-09-06T06:37:24.245Z,66.07
2022-09-06T06:38:31.761Z,66.21
2022-09-06T06:39:34.461Z,66.20
2022-09-06T06:40:36.243Z,66.03
2022-09-06T06:41:39.029Z,66.01
2022-09-06T06:42:42.143Z,65.62
2022-09-06T06:43:45.071Z,65.93
2022-09-06T06:44:46.700Z,66.17
2022-09-06T06:45:50.398Z,66.11
2022-09-06T06:46:53.019Z,66.16
2022-09-06T06:47:54.753Z,66.03
2022-09-06T06:48:57.367Z,66.12
2022-09-06T06:49:59.974Z,66.16
2022-09-06T06:51:01.912Z,66.12
2022-09-06T06:52:04.705Z,66.10
2022-09-06T06:53:06.297Z,65.90
2022-09-06T06:54:08.968Z,65.84
2022-09-06T06:55:10.658Z,65.88
2022-09-06T06:56:18.332Z,65.93
2022-09-06T06:57:20.899Z,66.11
2022-09-06T06:58:23.955Z,65.96
2022-09-06T06:59:26.474Z,65.73
2022-09-06T07:00:28.502Z,66.00
2022-09-06T07:01:33.657Z,65.75
2022-09-06T07:02:35.489Z,65.68
2022-09-06T07:03:38.267Z,65.81
2022-09-06T07:04:40.832Z,65.78
2022-09-06T07:08:28.852Z,65.53
2022-09-06T07:10:53.291Z,65.10
2022-09-06T07:11:56.283Z,65.00
2022-09-06T07:12:58.049Z,64.82
2022-09-06T07:14:02.128Z,64.83
2022-09-06T07:15:04.491Z,64.79
2022-09-06T07:16:08.878Z,64.67
2022-09-06T07:17:11.627Z,64.61
2022-09-06T07:18:15.617Z,64.06
2022-09-06T07:22:05.218Z,64.26
2022-09-06T07:24:30.168Z,64.20
2022-09-06T07:25:32.429Z,64.01
2022-09-06T07:26:36.285Z,64.01
2022-09-06T07:28:47.966Z,63.53
2022-09-06T07:29:51.932Z,63.67
2022-09-06T07:30:55.225Z,63.74
2022-09-06T07:32:13.216Z,63.49
2022-09-06T07:33:15.897Z,63.84
2022-09-06T07:34:19.131Z,63.97
2022-09-06T07:35:20.881Z,63.61
2022-09-06T07:36:23.701Z,63.35
2022-09-06T07:37:25.331Z,63.50
2022-09-06T07:38:29.565Z,63.47
2022-09-06T07:39:33.071Z,63.27
2022-09-06T07:40:35.693Z,63.20
2022-09-06T07:41:37.444Z,63.43
2022-09-06T07:42:40.040Z,63.35
2022-09-06T07:43:42.752Z,63.63
2022-09-06T07:44:45.357Z,63.17
2022-09-06T07:45:49.451Z,63.12
2022-09-06T07:46:52.660Z,63.38
2022-09-06T07:48:59.107Z,63.13
2022-09-06T07:51:23.850Z,62.57
2022-09-06T07:53:57.902Z,62.22
2022-09-06T07:55:05.880Z,62.07
2022-09-06T07:56:10.327Z,61.68
2022-09-06T07:57:12.145Z,61.93
2022-09-06T07:58:15.200Z,61.85
2022-09-06T07:59:17.891Z,61.37
2022-09-06T08:00:19.666Z,61.60
2022-09-06T08:01:30.955Z,61.11
2022-09-06T08:02:32.795Z,60.69
2022-09-06T08:03:35.485Z,60.54
2022-09-06T08:04:38.062Z,60.80
2022-09-06T08:09:48.685Z,59.87
2022-09-06T08:10:50.832Z,59.98
2022-09-06T08:11:53.652Z,60.05
2022-09-06T08:12:55.347Z,59.78
2022-09-06T08:14:00.241Z,59.12
2022-09-06T08:15:02.553Z,59.28
2022-09-06T08:16:06.998Z,59.34
2022-09-06T08:17:11.046Z,59.13
2022-09-06T08:18:12.833Z,59.01
2022-09-06T08:19:15.491Z,59.02
2022-09-06T08:20:17.804Z,59.13
2022-09-06T08:21:23.459Z,59.17
2022-09-06T08:22:26.085Z,59.13
2022-09-06T08:23:29.152Z,59.10
2022-09-06T08:24:32.777Z,59.15
2022-09-06T08:25:34.395Z,59.04
2022-09-06T08:26:40.181Z,58.75
2022-09-06T08:27:42.940Z,58.77
2022-09-06T08:28:45.943Z,58.50
2022-09-06T08:29:48.705Z,58.13
2022-09-06T08:30:50.337Z,58.33
2022-09-06T08:31:53.079Z,58.53
2022-09-06T08:32:56.793Z,58.13
2022-09-06T08:34:00.781Z,58.23
2022-09-06T08:35:02.729Z,58.34
2022-09-06T08:36:06.240Z,58.17
2022-09-06T08:37:07.890Z,58.03
2022-09-06T08:38:10.469Z,57.81
2022-09-06T08:39:12.358Z,58.22
2022-09-06T08:40:20.768Z,57.24
2022-09-06T08:41:26.038Z,57.73
2022-09-06T08:42:28.800Z,57.05
2022-09-06T08:43:30.558Z,57.15
2022-09-06T08:46:00.395Z,56.77
2022-09-06T08:47:07.484Z,57.18
2022-09-06T08:48:11.889Z,56.86
2022-09-06T08:49:13.696Z,56.65
2022-09-06T08:50:16.493Z,57.19
2022-09-06T08:51:47.863Z,57.06
2022-09-06T08:53:16.886Z,56.81
2022-09-06T08:54:29.944Z,56.70
2022-09-06T08:55:37.397Z,55.98
2022-09-06T08:56:52.203Z,56.26
2022-09-06T08:58:06.068Z,56.04
2022-09-06T08:59:14.538Z,55.41
2022-09-06T09:00:17.297Z,55.99
2022-09-06T09:01:25.430Z,55.42
2022-09-06T09:02:29.576Z,55.48
2022-09-06T09:03:36.606Z,55.33
2022-09-06T09:04:44.370Z,55.26
2022-09-06T09:05:50.377Z,55.29
2022-09-06T09:06:57.104Z,54.88
2022-09-06T09:08:07.662Z,54.66
2022-09-06T09:09:14.929Z,54.95
2022-09-06T09:10:24.902Z,54.48
2022-09-06T09:11:28.734Z,54.83
2022-09-06T09:12:33.873Z,53.94
2022-09-06T09:13:41.805Z,54.31
2022-09-06T09:14:48.321Z,54.32
2022-09-06T09:15:50.987Z,54.40
2022-09-06T09:16:56.101Z,53.77
2022-09-06T09:17:58.716Z,54.06
2022-09-06T09:19:03.570Z,53.45
2022-09-06T09:20:08.314Z,53.73
2022-09-06T09:21:11.665Z,53.44
2022-09-06T09:22:17.601Z,53.23
2022-09-06T09:23:20.460Z,53.42
2022-09-06T09:24:24.264Z,52.69
2022-09-06T09:25:26.918Z,53.05
2022-09-06T09:26:33.822Z,52.96
2022-09-06T09:27:37.856Z,52.96
2022-09-06T09:28:40.615Z,52.88
2022-09-06T09:31:35.562Z,52.74
2022-09-06T09:32:40.020Z,51.88
2022-09-06T09:33:42.719Z,52.49
2022-09-06T09:34:45.902Z,52.03
2022-09-06T09:35:48.888Z,52.17
2022-09-06T09:38:42.713Z,51.84
2022-09-06T09:39:44.719Z,52.21
2022-09-06T09:40:52.091Z,51.23
2022-09-06T09:41:54.747Z,52.01
2022-09-06T09:43:08.931Z,51.66
2022-09-06T09:44:18.329Z,51.67
2022-09-06T09:45:25.179Z,51.64
2022-09-06T09:46:33.964Z,51.14
2022-09-06T09:47:35.654Z,51.65
2022-09-06T09:48:39.191Z,50.99
2022-09-06T09:49:40.875Z,51.45
2022-09-06T09:50:44.792Z,51.56
2022-09-06T09:52:04.940Z,50.82
2022-09-06T09:53:09.724Z,50.60
2022-09-06T09:54:14.646Z,50.57
2022-09-06T09:55:16.404Z,51.09
2022-09-06T09:56:30.816Z,50.85
2022-09-06T09:57:45.153Z,50.73
2022-09-06T09:58:46.853Z,50.80
2022-09-06T09:59:53.829Z,50.95
2022-09-06T10:01:11.053Z,50.86
2022-09-06T10:02:24.509Z,50.88
2022-09-06T10:03:29.598Z,50.59
2022-09-06T10:06:02.265Z,50.25
2022-09-06T10:07:12.244Z,50.24
2022-09-06T10:08:15.585Z,50.70
2022-09-06T10:09:21.242Z,49.95
2022-09-06T10:10:25.467Z,50.50
2022-09-06T10:11:39.360Z,49.89
2022-09-06T10:12:43.873Z,49.52
2022-09-06T10:13:46.581Z,49.59
2022-09-06T10:14:49.489Z,49.71
2022-09-06T10:15:54.025Z,49.82
2022-09-06T10:16:56.668Z,49.36
2022-09-06T10:17:59.686Z,49.41
2022-09-06T10:19:13.284Z,48.95
2022-09-06T10:20:16.796Z,49.30
2022-09-06T10:21:22.223Z,50.11
2022-09-06T10:22:29.476Z,49.50
2022-09-06T10:25:22.783Z,49.42
2022-09-06T10:26:33.353Z,49.91
2022-09-06T10:28:08.167Z,50.05
2022-09-06T10:29:10.634Z,49.39
2022-09-06T10:30:14.454Z,49.04
2022-09-06T10:31:37.369Z,49.15
2022-09-06T10:32:42.963Z,49.14
2022-09-06T10:33:59.235Z,49.64
2022-09-06T10:35:15.786Z,49.13
2022-09-06T10:36:24.076Z,49.26
2022-09-06T10:37:43.303Z,49.00
2022-09-06T10:38:54.821Z,49.21
2022-09-06T10:40:07.346Z,48.53
2022-09-06T10:41:29.447Z,48.60
2022-09-06T10:42:39.336Z,48.92
2022-09-06T10:43:50.594Z,49.00
2022-09-06T10:45:04.397Z,48.87
2022-09-06T10:46:15.022Z,48.33
2022-09-06T10:47:19.063Z,48.43
2022-09-06T10:48:28.518Z,48.83
2022-09-06T10:49:34.521Z,48.47
2022-09-06T10:50:42.752Z,48.17
2022-09-06T10:51:50.573Z,48.41
2022-09-06T10:52:54.125Z,48.51
2022-09-06T10:54:04.770Z,48.46
2022-09-06T10:55:13.918Z,48.55
2022-09-06T10:56:21.991Z,48.39
2022-09-06T11:00:21.745Z,48.23
2022-09-06T11:01:31.307Z,48.34
2022-09-06T11:02:42.918Z,48.36
2022-09-06T11:03:55.662Z,48.39
2022-09-06T11:06:34.931Z,48.13
2022-09-06T11:09:13.577Z,48.27
2022-09-06T11:10:22.865Z,48.00
2022-09-06T11:11:35.444Z,48.41
2022-09-06T11:12:43.430Z,48.22
2022-09-06T11:13:45.134Z,47.84
2022-09-06T11:14:48.487Z,48.02
2022-09-06T11:15:57.500Z,48.27
2022-09-06T11:17:06.645Z,48.05
2022-09-06T11:18:18.304Z,48.22
2022-09-06T11:19:27.029Z,47.83
2022-09-06T11:20:36.462Z,47.88
2022-09-06T11:22:30.924Z,47.73
2022-09-06T11:23:49.117Z,48.01
2022-09-06T11:25:17.105Z,47.75
2022-09-06T11:26:43.299Z,48.08
2022-09-06T11:27:47.844Z,48.23
2022-09-06T11:28:54.693Z,47.68
2022-09-06T11:29:58.869Z,48.00
2022-09-06T11:31:00.944Z,47.49
2022-09-06T11:32:25.173Z,47.68
2022-09-06T11:33:30.327Z,47.57
2022-09-06T11:34:33.976Z,47.52
2022-09-06T11:35:37.610Z,47.36
2022-09-06T11:36:46.914Z,47.51
2022-09-06T11:37:59.152Z,47.51
2022-09-06T11:39:04.649Z,47.47
2022-09-06T11:40:30.618Z,47.21
2022-09-06T11:41:36.542Z,47.07
2022-09-06T11:43:11.783Z,47.87
2022-09-06T11:44:54.452Z,47.28
2022-09-06T11:45:57.148Z,47.74
2022-09-06T11:47:02.039Z,47.56
2022-09-06T11:48:34.249Z,47.27
2022-09-06T11:49:41.249Z,47.23
2022-09-06T11:51:02.807Z,47.23
2022-09-06T11:52:57.731Z,47.34
2022-09-06T11:54:21.772Z,47.28
2022-09-06T11:55:31.760Z,47.19
2022-09-06T11:56:43.166Z,47.10
2022-09-06T11:57:48.049Z,47.25
2022-09-06T11:58:57.018Z,47.23
2022-09-06T12:00:04.138Z,46.89
2022-09-06T12:01:40.948Z,46.98
2022-09-06T12:02:44.795Z,46.96
2022-09-06T12:04:07.750Z,46.92
2022-09-06T12:05:16.686Z,47.27
2022-09-06T12:06:20.808Z,46.57
2022-09-06T12:07:22.477Z,47.22
2022-09-06T12:08:32.616Z,47.01
2022-09-06T12:09:38.663Z,47.51
2022-09-06T12:10:51.036Z,47.11
2022-09-06T12:11:53.708Z,47.41
2022-09-06T12:12:55.650Z,47.32
2022-09-06T12:14:03.720Z,46.94
2022-09-06T12:15:24.884Z,47.13
2022-09-06T12:17:09.558Z,47.14
2022-09-06T12:18:52.339Z,46.95
2022-09-06T12:20:09.449Z,47.25
2022-09-06T12:21:40.167Z,46.98
2022-09-06T12:22:54.696Z,47.11
2022-09-06T12:23:57.425Z,47.02
2022-09-06T12:25:00.321Z,47.08
2022-09-06T12:26:04.118Z,46.90
2022-09-06T12:27:11.397Z,46.53
2022-09-06T12:28:37.046Z,46.64
2022-09-06T12:29:38.897Z,46.52
2022-09-06T12:30:44.419Z,46.50
2022-09-06T12:31:53.275Z,46.47
2022-09-06T12:32:55.271Z,46.28
2022-09-06T12:33:59.870Z,46.33
2022-09-06T12:36:31.096Z,46.35
2022-09-06T12:37:37.180Z,46.42
2022-09-06T12:38:38.823Z,46.18
2022-09-06T12:39:57.329Z,46.05
2022-09-06T12:41:01.068Z,46.04
2022-09-06T12:42:06.530Z,46.16
2022-09-06T12:43:11.731Z,46.00
2022-09-06T12:44:16.650Z,45.75
2022-09-06T12:45:26.545Z,45.53
2022-09-06T12:46:32.301Z,45.33
2022-09-06T12:47:39.902Z,45.11
2022-09-06T12:48:44.342Z,44.98
2022-09-06T12:49:48.267Z,44.92
2022-09-06T12:51:01.893Z,44.65
2022-09-06T12:52:09.662Z,44.64
2022-09-06T12:53:24.793Z,44.31
2022-09-06T12:54:28.817Z,44.50
2022-09-06T12:55:33.053Z,44.55
2022-09-06T12:56:35.929Z,44.63
2022-09-06T12:57:46.911Z,44.67
2022-09-06T12:58:50.148Z,44.95
2022-09-06T12:59:53.844Z,44.79
2022-09-06T13:01:04.775Z,44.83
2022-09-06T13:02:14.708Z,44.54
2022-09-06T13:03:26.970Z,44.55
2022-09-06T13:04:33.975Z,44.84
2022-09-06T13:05:40.266Z,44.62
2022-09-06T13:06:45.651Z,44.80
2022-09-06T13:07:54.126Z,44.42
2022-09-06T13:08:58.631Z,44.39
2022-09-06T13:10:01.385Z,44.57
2022-09-06T13:11:05.850Z,44.29
2022-09-06T13:12:16.197Z,44.32
2022-09-06T13:13:22.658Z,44.54
2022-09-06T13:14:27.819Z,44.57
2022-09-06T13:15:31.937Z,44.27
2022-09-06T13:16:37.734Z,44.26
2022-09-06T13:17:40.809Z,44.35
2022-09-06T13:18:42.429Z,44.42
2022-09-06T13:19:45.154Z,44.22
2022-09-06T13:20:58.939Z,44.13
2022-09-06T13:22:03.696Z,43.46
2022-09-06T13:23:09.310Z,43.23
2022-09-06T13:24:23.225Z,42.94
2022-09-06T13:25:27.693Z,42.61
2022-09-06T13:26:34.623Z,42.54
2022-09-06T13:27:37.826Z,42.28
2022-09-06T13:28:40.926Z,41.96
2022-09-06T13:29:54.715Z,41.86
2022-09-06T13:31:05.609Z,41.43
2022-09-06T13:32:14.438Z,41.03
2022-09-06T13:33:25.479Z,40.52
2022-09-06T13:34:30.342Z,40.32
2022-09-06T13:35:34.564Z,40.08
2022-09-06T13:36:38.561Z,40.08
2022-09-06T13:37:41.079Z,39.58
2022-09-06T13:38:45.328Z,39.66
2022-09-06T13:39:47.171Z,39.53
2022-09-06T13:42:26.791Z,39.36
2022-09-06T13:43:33.292Z,38.85
2022-09-06T13:44:38.627Z,37.94
2022-09-06T13:45:40.708Z,37.91
2022-09-06T13:46:43.404Z,36.63
2022-09-06T13:47:45.009Z,35.85
2022-09-06T13:48:47.544Z,35.85
2022-09-06T13:49:51.567Z,35.70
2022-09-06T13:50:54.185Z,35.47
2022-09-06T13:52:01.203Z,35.21
2022-09-06T13:53:03.564Z,35.18
2022-09-06T13:54:07.622Z,35.22
2022-09-06T13:55:15.722Z,34.97
2022-09-06T13:56:17.683Z,34.71
2022-09-06T13:57:24.318Z,34.35
2022-09-06T13:58:26.541Z,34.35
2022-09-06T13:59:30.255Z,34.01
2022-09-06T14:00:31.853Z,34.17
2022-09-06T14:01:34.838Z,33.89
2022-09-06T14:02:38.226Z,33.86
2022-09-06T14:03:41.736Z,33.80
2022-09-06T14:04:44.399Z,33.43
2022-09-06T14:05:46.037Z,33.60
2022-09-06T14:06:49.557Z,33.39
2022-09-06T14:07:53.654Z,33.76
2022-09-06T14:09:06.865Z,33.86
2022-09-06T14:10:12.256Z,34.15
2022-09-06T14:11:13.997Z,34.13
2022-09-06T14:12:16.552Z,34.33
2022-09-06T14:13:19.431Z,34.42
2022-09-06T14:14:22.055Z,34.21
2022-09-06T14:15:23.878Z,33.97
2022-09-06T14:16:26.758Z,34.47
2022-09-06T14:17:28.422Z,34.42
2022-09-06T14:18:31.256Z,34.67
2022-09-06T14:19:33.922Z,34.55
2022-09-06T14:20:35.513Z,34.79
2022-09-06T14:21:38.559Z,34.74
2022-09-06T14:22:40.672Z,34.02
2022-09-06T14:23:50.801Z,34.49
2022-09-06T14:24:55.593Z,34.37
2022-09-06T14:25:58.106Z,34.27
2022-09-06T14:27:00.662Z,34.11
2022-09-06T14:28:02.837Z,34.54
2022-09-06T14:29:06.008Z,33.99
2022-09-06T14:30:09.001Z,33.94
2022-09-06T14:31:12.957Z,34.07
2022-09-06T14:32:19.250Z,34.08
2022-09-06T14:33:23.433Z,33.68
2022-09-06T14:34:27.056Z,33.82
2022-09-06T14:35:30.532Z,33.47
2022-09-06T14:36:33.798Z,33.49
2022-09-06T14:37:35.672Z,33.66
2022-09-06T14:38:39.070Z,33.55
2022-09-06T14:39:43.059Z,33.11
2022-09-06T14:40:44.715Z,33.10
2022-09-06T14:41:48.109Z,32.97
2022-09-06T14:42:50.642Z,32.89